createdAt,value
2018-04-10T00:14:34.573Z,97008.89
2018-04-10T00:35:09.847Z,97023.44
2018-04-10T00:55:46.038Z,97015.80
2018-04-10T01:16:18.239Z,96995.59
2018-04-10T01:36:50.440Z,96988.77
2018-04-10T01:57:22.634Z,96973.28
2018-04-10T02:17:57.911Z,96971.67
2018-04-10T02:38:43.451Z,96970.92
2018-04-10T02:59:14.292Z,96967.53
2018-04-10T03:19:47.853Z,96972.58
2018-04-10T03:40:19.920Z,96962.34
2018-04-10T04:00:56.113Z,96965.27
2018-04-10T04:21:46.435Z,96947.95
2018-04-10T04:42:23.251Z,96953.06
2018-04-10T05:02:57.900Z,96948.62
2018-04-10T05:23:33.370Z,96977.41
2018-04-10T05:44:05.378Z,97015.08
2018-04-10T06:04:37.574Z,97033.28
2018-04-10T06:25:11.995Z,97034.19
2018-04-10T06:45:47.195Z,97018.34
2018-04-10T07:06:19.089Z,97014.20
2018-04-10T07:26:53.438Z,97034.73
2018-04-10T07:47:26.561Z,97037.88
2018-04-10T08:08:04.148Z,97035.69
2018-04-10T08:28:38.366Z,97048.72
2018-04-10T08:49:12.386Z,97049.48
2018-04-10T09:09:45.497Z,97056.41
2018-04-10T09:30:20.768Z,97062.00
2018-04-10T09:50:53.226Z,97034.96
2018-04-10T10:11:26.096Z,97052.41
2018-04-10T10:32:00.449Z,97036.80
2018-04-10T10:52:33.568Z,97034.05
2018-04-10T11:13:10.688Z,97023.47
2018-04-10T11:33:47.186Z,97017.06
2018-04-10T11:54:21.579Z,97018.81
2018-04-10T12:14:54.662Z,97030.41
2018-04-10T12:35:29.627Z,97053.36
2018-04-10T12:56:06.253Z,97059.02
2018-04-10T13:16:42.319Z,97052.32
2018-04-10T13:37:17.725Z,97038.34
2018-04-10T13:57:54.036Z,97031.94
2018-04-10T14:18:26.910Z,97044.14
2018-04-10T14:39:00.387Z,97037.92
2018-04-10T14:59:32.587Z,97041.41
2018-04-10T15:20:06.588Z,97062.64
2018-04-10T15:40:40.629Z,97048.70
2018-04-10T16:01:16.434Z,97094.64
2018-04-10T16:21:50.477Z,97142.37
2018-04-10T16:42:23.064Z,97159.78
2018-04-10T17:02:57.902Z,97163.55
2018-04-10T17:23:32.126Z,97180.47
2018-04-10T17:44:04.533Z,97198.33
2018-04-10T18:04:35.241Z,97216.73
2018-04-10T18:25:10.517Z,97252.72
2018-04-10T18:45:42.715Z,97287.38
2018-04-10T19:06:14.131Z,97288.91
2018-04-10T19:26:46.337Z,97292.77
2018-04-10T19:47:20.240Z,97231.19
2018-04-10T20:07:51.520Z,97214.53
2018-04-10T20:28:26.795Z,97205.05
2018-04-10T20:48:58.992Z,97217.78
2018-04-10T21:09:31.378Z,97172.38
2018-04-10T21:30:04.325Z,97232.98
2018-04-10T21:50:39.585Z,97228.54
2018-04-10T22:11:11.788Z,97224.64
2018-04-10T22:31:44.906Z,97207.45
2018-04-10T22:52:19.229Z,97201.75
2018-04-10T23:12:58.514Z,97244.11
2018-04-10T23:33:30.928Z,97269.23
2018-04-10T23:48:09.834Z,97291.90
2018-04-10T23:50:38.861Z,97295.14
2018-04-10T23:53:07.141Z,97290.82
2018-04-10T23:55:35.432Z,97288.71
2018-04-10T23:58:03.694Z,97289.10
